sensor_id;sensor_type;location;lat;lon;timestamp;temperature;humidity
38568;DHT22;24338;48.280;10.970;2022-10-16T00:02:09;12.00;99.90
38568;DHT22;24338;48.280;10.970;2022-10-16T00:04:36;11.90;99.90
38568;DHT22;24338;48.280;10.970;2022-10-16T00:07:03;11.90;99.90
38568;DHT22;24338;48.280;10.970;2022-10-16T00:09:30;11.90;99.90
38568;DHT22;24338;48.280;10.970;2022-10-16T00:11:57;11.90;99.90
38568;DHT22;24338;48.280;10.970;2022-10-16T00:14:23;11.80;99.90
38568;DHT22;24338;48.280;10.970;2022-10-16T00:16:50;11.90;99.90
38568;DHT22;24338;48.280;10.970;2022-10-16T00:19:17;11.80;99.90
38568;DHT22;24338;48.280;10.970;2022-10-16T00:21:44;11.90;99.90
38568;DHT22;24338;48.280;10.970;2022-10-16T00:24:11;11.90;99.90
38568;DHT22;24338;48.280;10.970;2022-10-16T00:26:39;11.90;99.90
38568;DHT22;24338;48.280;10.970;2022-10-16T00:29:06;11.90;99.90
38568;DHT22;24338;48.280;10.970;2022-10-16T00:31:33;11.90;99.90
38568;DHT22;24338;48.280;10.970;2022-10-16T00:34:00;11.90;99.90
38568;DHT22;24338;48.280;10.970;2022-10-16T00:36:27;11.90;99.90
38568;DHT22;24338;48.280;10.970;2022-10-16T00:38:56;11.90;99.90
38568;DHT22;24338;48.280;10.970;2022-10-16T00:41:26;11.90;99.90
38568;DHT22;24338;48.280;10.970;2022-10-16T00:43:58;11.90;99.90
38568;DHT22;24338;48.280;10.970;2022-10-16T00:51:54;11.90;99.90
38568;DHT22;24338;48.280;10.970;2022-10-16T00:54:23;11.90;99.90
38568;DHT22;24338;48.280;10.970;2022-10-16T00:56:53;11.80;99.90
38568;DHT22;24338;48.280;10.970;2022-10-16T00:59:25;11.70;99.90
38568;DHT22;24338;48.280;10.970;2022-10-16T01:01:54;11.70;99.90
38568;DHT22;24338;48.280;10.970;2022-10-16T01:04:21;11.70;99.90
38568;DHT22;24338;48.280;10.970;2022-10-16T01:18:17;11.60;99.90
38568;DHT22;24338;48.280;10.970;2022-10-16T01:28:54;11.60;99.90
38568;DHT22;24338;48.280;10.970;2022-10-16T01:31:25;11.60;99.90
38568;DHT22;24338;48.280;10.970;2022-10-16T01:34:05;11.70;99.90
38568;DHT22;24338;48.280;10.970;2022-10-16T01:36:39;11.60;99.90
38568;DHT22;24338;48.280;10.970;2022-10-16T01:39:10;11.70;99.90
38568;DHT22;24338;48.280;10.970;2022-10-16T01:41:45;11.70;99.90
38568;DHT22;24338;48.280;10.970;2022-10-16T01:44:22;11.70;99.90
38568;DHT22;24338;48.280;10.970;2022-10-16T01:46:52;11.70;99.90
38568;DHT22;24338;48.280;10.970;2022-10-16T01:49:22;11.70;99.90
38568;DHT22;24338;48.280;10.970;2022-10-16T01:51:53;11.70;99.90
38568;DHT22;24338;48.280;10.970;2022-10-16T01:54:23;11.70;99.90
38568;DHT22;24338;48.280;10.970;2022-10-16T01:56:53;11.70;99.90
38568;DHT22;24338;48.280;10.970;2022-10-16T01:59:22;11.70;99.90
38568;DHT22;24338;48.280;10.970;2022-10-16T02:01:53;11.70;99.90
38568;DHT22;24338;48.280;10.970;2022-10-16T02:04:37;11.60;99.90
38568;DHT22;24338;48.280;10.970;2022-10-16T02:07:05;11.60;99.90
38568;DHT22;24338;48.280;10.970;2022-10-16T02:09:34;11.50;99.90
38568;DHT22;24338;48.280;10.970;2022-10-16T02:12:08;11.50;99.90
38568;DHT22;24338;48.280;10.970;2022-10-16T02:14:38;11.50;99.90
38568;DHT22;24338;48.280;10.970;2022-10-16T02:17:17;11.50;99.90
38568;DHT22;24338;48.280;10.970;2022-10-16T02:19:45;11.50;99.90
38568;DHT22;24338;48.280;10.970;2022-10-16T02:22:27;11.40;99.90
38568;DHT22;24338;48.280;10.970;2022-10-16T02:25:15;11.40;99.90
38568;DHT22;24338;48.280;10.970;2022-10-16T02:28:14;11.40;99.90
38568;DHT22;24338;48.280;10.970;2022-10-16T02:30:49;11.40;99.90
38568;DHT22;24338;48.280;10.970;2022-10-16T02:33:18;11.40;99.90
38568;DHT22;24338;48.280;10.970;2022-10-16T02:35:47;11.40;99.90
38568;DHT22;24338;48.280;10.970;2022-10-16T02:38:16;11.30;99.90
38568;DHT22;24338;48.280;10.970;2022-10-16T02:40:44;11.40;99.90
38568;DHT22;24338;48.280;10.970;2022-10-16T02:43:11;11.30;99.90
38568;DHT22;24338;48.280;10.970;2022-10-16T02:45:38;11.30;99.90
38568;DHT22;24338;48.280;10.970;2022-10-16T02:48:06;11.40;99.90
38568;DHT22;24338;48.280;10.970;2022-10-16T02:50:33;11.40;99.90
38568;DHT22;24338;48.280;10.970;2022-10-16T02:53:00;11.40;99.90
38568;DHT22;24338;48.280;10.970;2022-10-16T02:55:27;11.40;99.90
38568;DHT22;24338;48.280;10.970;2022-10-16T02:57:54;11.50;99.90
38568;DHT22;24338;48.280;10.970;2022-10-16T03:00:21;11.50;99.90
38568;DHT22;24338;48.280;10.970;2022-10-16T03:02:48;11.50;99.90
38568;DHT22;24338;48.280;10.970;2022-10-16T03:05:15;11.50;99.90
38568;DHT22;24338;48.280;10.970;2022-10-16T03:07:42;11.50;99.90
38568;DHT22;24338;48.280;10.970;2022-10-16T03:10:09;11.50;99.90
38568;DHT22;24338;48.280;10.970;2022-10-16T03:12:36;11.60;99.90
38568;DHT22;24338;48.280;10.970;2022-10-16T03:15:03;11.60;99.90
38568;DHT22;24338;48.280;10.970;2022-10-16T03:17:32;11.60;99.90
38568;DHT22;24338;48.280;10.970;2022-10-16T03:19:59;11.60;99.90
38568;DHT22;24338;48.280;10.970;2022-10-16T03:22:25;11.60;99.90
38568;DHT22;24338;48.280;10.970;2022-10-16T03:24:52;11.60;99.90
38568;DHT22;24338;48.280;10.970;2022-10-16T03:27:19;11.60;99.90
38568;DHT22;24338;48.280;10.970;2022-10-16T03:29:46;11.60;99.90
38568;DHT22;24338;48.280;10.970;2022-10-16T03:32:13;11.70;99.90
38568;DHT22;24338;48.280;10.970;2022-10-16T03:34:40;11.60;99.90
38568;DHT22;24338;48.280;10.970;2022-10-16T03:37:06;11.70;99.90
38568;DHT22;24338;48.280;10.970;2022-10-16T03:39:33;11.70;99.90
38568;DHT22;24338;48.280;10.970;2022-10-16T03:42:00;11.70;99.90
38568;DHT22;24338;48.280;10.970;2022-10-16T03:44:27;11.70;99.90
38568;DHT22;24338;48.280;10.970;2022-10-16T03:46:54;11.70;99.90
38568;DHT22;24338;48.280;10.970;2022-10-16T03:49:21;11.70;99.90
38568;DHT22;24338;48.280;10.970;2022-10-16T03:51:47;11.70;99.90
38568;DHT22;24338;48.280;10.970;2022-10-16T03:54:14;11.70;99.90
38568;DHT22;24338;48.280;10.970;2022-10-16T03:56:41;11.70;99.90
38568;DHT22;24338;48.280;10.970;2022-10-16T03:59:08;11.70;99.90
38568;DHT22;24338;48.280;10.970;2022-10-16T04:01:35;11.70;99.90
38568;DHT22;24338;48.280;10.970;2022-10-16T04:04:02;11.70;99.90
38568;DHT22;24338;48.280;10.970;2022-10-16T04:06:28;11.80;99.90
38568;DHT22;24338;48.280;10.970;2022-10-16T04:08:55;11.80;99.90
38568;DHT22;24338;48.280;10.970;2022-10-16T04:11:22;11.80;99.90
38568;DHT22;24338;48.280;10.970;2022-10-16T04:13:49;11.70;99.90
38568;DHT22;24338;48.280;10.970;2022-10-16T04:16:16;11.80;99.90
38568;DHT22;24338;48.280;10.970;2022-10-16T04:18:43;11.80;99.90
38568;DHT22;24338;48.280;10.970;2022-10-16T04:21:10;11.80;99.90
38568;DHT22;24338;48.280;10.970;2022-10-16T04:23:36;11.80;99.90
38568;DHT22;24338;48.280;10.970;2022-10-16T04:26:03;11.80;99.90
38568;DHT22;24338;48.280;10.970;2022-10-16T04:28:30;11.80;99.90
38568;DHT22;24338;48.280;10.970;2022-10-16T04:30:57;11.80;99.90
38568;DHT22;24338;48.280;10.970;2022-10-16T04:33:24;11.80;99.90
38568;DHT22;24338;48.280;10.970;2022-10-16T04:36:01;11.80;99.90
38568;DHT22;24338;48.280;10.970;2022-10-16T04:38:28;11.80;99.90
38568;DHT22;24338;48.280;10.970;2022-10-16T04:40:55;11.70;99.90
38568;DHT22;24338;48.280;10.970;2022-10-16T04:43:22;11.70;99.90
38568;DHT22;24338;48.280;10.970;2022-10-16T04:45:49;11.70;99.90
38568;DHT22;24338;48.280;10.970;2022-10-16T04:50:51;11.60;99.90
38568;DHT22;24338;48.280;10.970;2022-10-16T04:53:21;11.60;99.90
38568;DHT22;24338;48.280;10.970;2022-10-16T04:55:48;11.50;99.90
38568;DHT22;24338;48.280;10.970;2022-10-16T04:58:14;11.40;99.90
38568;DHT22;24338;48.280;10.970;2022-10-16T05:00:41;11.40;99.90
38568;DHT22;24338;48.280;10.970;2022-10-16T05:03:08;11.40;99.90
38568;DHT22;24338;48.280;10.970;2022-10-16T05:05:36;11.30;99.90
38568;DHT22;24338;48.280;10.970;2022-10-16T05:08:03;11.30;99.90
38568;DHT22;24338;48.280;10.970;2022-10-16T05:10:30;11.20;99.90
38568;DHT22;24338;48.280;10.970;2022-10-16T05:12:57;11.10;99.90
38568;DHT22;24338;48.280;10.970;2022-10-16T05:15:24;11.20;99.90
38568;DHT22;24338;48.280;10.970;2022-10-16T05:17:55;11.10;99.90
38568;DHT22;24338;48.280;10.970;2022-10-16T05:20:22;11.10;99.90
38568;DHT22;24338;48.280;10.970;2022-10-16T05:22:49;11.10;99.90
38568;DHT22;24338;48.280;10.970;2022-10-16T05:25:16;11.00;99.90
38568;DHT22;24338;48.280;10.970;2022-10-16T05:27:46;11.00;99.90
38568;DHT22;24338;48.280;10.970;2022-10-16T05:30:13;11.00;99.90
38568;DHT22;24338;48.280;10.970;2022-10-16T05:32:40;11.00;99.90
38568;DHT22;24338;48.280;10.970;2022-10-16T05:35:07;11.00;99.90
38568;DHT22;24338;48.280;10.970;2022-10-16T05:37:38;11.00;99.90
38568;DHT22;24338;48.280;10.970;2022-10-16T05:40:05;11.00;99.90
38568;DHT22;24338;48.280;10.970;2022-10-16T05:42:32;11.00;99.90
38568;DHT22;24338;48.280;10.970;2022-10-16T05:44:59;11.00;99.90
38568;DHT22;24338;48.280;10.970;2022-10-16T05:47:26;11.00;99.90
38568;DHT22;24338;48.280;10.970;2022-10-16T05:49:53;11.00;99.90
38568;DHT22;24338;48.280;10.970;2022-10-16T05:52:20;11.00;99.90
38568;DHT22;24338;48.280;10.970;2022-10-16T05:54:47;11.00;99.90
38568;DHT22;24338;48.280;10.970;2022-10-16T05:57:14;11.00;99.90
38568;DHT22;24338;48.280;10.970;2022-10-16T05:59:40;11.00;99.90
38568;DHT22;24338;48.280;10.970;2022-10-16T06:02:12;10.90;99.90
38568;DHT22;24338;48.280;10.970;2022-10-16T06:04:39;10.90;99.90
38568;DHT22;24338;48.280;10.970;2022-10-16T06:07:06;10.90;99.90
38568;DHT22;24338;48.280;10.970;2022-10-16T06:09:38;10.90;99.90
38568;DHT22;24338;48.280;10.970;2022-10-16T06:12:05;10.90;99.90
38568;DHT22;24338;48.280;10.970;2022-10-16T06:14:32;10.80;99.90
38568;DHT22;24338;48.280;10.970;2022-10-16T06:16:59;10.80;99.90
38568;DHT22;24338;48.280;10.970;2022-10-16T06:19:29;10.80;99.90
38568;DHT22;24338;48.280;10.970;2022-10-16T06:21:55;10.80;99.90
38568;DHT22;24338;48.280;10.970;2022-10-16T06:24:25;10.80;99.90
38568;DHT22;24338;48.280;10.970;2022-10-16T06:26:52;10.80;99.90
38568;DHT22;24338;48.280;10.970;2022-10-16T06:29:19;10.80;99.90
38568;DHT22;24338;48.280;10.970;2022-10-16T06:31:46;10.80;99.90
38568;DHT22;24338;48.280;10.970;2022-10-16T06:34:13;10.90;99.90
38568;DHT22;24338;48.280;10.970;2022-10-16T06:36:40;10.90;99.90
38568;DHT22;24338;48.280;10.970;2022-10-16T06:39:07;10.90;99.90
38568;DHT22;24338;48.280;10.970;2022-10-16T06:41:34;11.00;99.90
38568;DHT22;24338;48.280;10.970;2022-10-16T06:44:04;11.00;99.90
38568;DHT22;24338;48.280;10.970;2022-10-16T06:46:31;11.10;99.90
38568;DHT22;24338;48.280;10.970;2022-10-16T06:48:58;11.10;99.90
38568;DHT22;24338;48.280;10.970;2022-10-16T06:51:25;11.20;99.90
38568;DHT22;24338;48.280;10.970;2022-10-16T06:53:54;11.30;99.90
38568;DHT22;24338;48.280;10.970;2022-10-16T06:56:31;11.30;99.90
38568;DHT22;24338;48.280;10.970;2022-10-16T06:58:59;11.40;99.90
38568;DHT22;24338;48.280;10.970;2022-10-16T07:01:26;11.50;99.90
38568;DHT22;24338;48.280;10.970;2022-10-16T07:03:56;11.50;99.90
38568;DHT22;24338;48.280;10.970;2022-10-16T07:06:29;11.50;99.90
38568;DHT22;24338;48.280;10.970;2022-10-16T07:08:56;11.60;99.90
38568;DHT22;24338;48.280;10.970;2022-10-16T07:11:24;11.70;99.90
38568;DHT22;24338;48.280;10.970;2022-10-16T07:13:51;11.80;99.90
38568;DHT22;24338;48.280;10.970;2022-10-16T07:16:26;11.90;99.90
38568;DHT22;24338;48.280;10.970;2022-10-16T07:18:57;11.90;99.90
38568;DHT22;24338;48.280;10.970;2022-10-16T07:21:32;12.00;99.90
38568;DHT22;24338;48.280;10.970;2022-10-16T07:24:04;12.10;99.90
38568;DHT22;24338;48.280;10.970;2022-10-16T07:26:34;12.20;99.90
38568;DHT22;24338;48.280;10.970;2022-10-16T07:29:02;12.30;99.90
38568;DHT22;24338;48.280;10.970;2022-10-16T07:31:30;12.30;99.90
38568;DHT22;24338;48.280;10.970;2022-10-16T07:33:58;12.50;99.90
38568;DHT22;24338;48.280;10.970;2022-10-16T07:36:25;12.60;99.90
38568;DHT22;24338;48.280;10.970;2022-10-16T07:38:52;12.70;99.90
38568;DHT22;24338;48.280;10.970;2022-10-16T07:41:25;12.80;99.90
38568;DHT22;24338;48.280;10.970;2022-10-16T07:43:52;13.00;99.90
38568;DHT22;24338;48.280;10.970;2022-10-16T07:46:21;13.10;99.90
38568;DHT22;24338;48.280;10.970;2022-10-16T07:48:49;13.10;99.90
38568;DHT22;24338;48.280;10.970;2022-10-16T07:51:18;13.20;99.90
38568;DHT22;24338;48.280;10.970;2022-10-16T07:53:46;13.30;99.90
38568;DHT22;24338;48.280;10.970;2022-10-16T07:56:14;13.40;99.90
38568;DHT22;24338;48.280;10.970;2022-10-16T07:58:41;13.50;99.90
38568;DHT22;24338;48.280;10.970;2022-10-16T08:01:14;13.60;99.90
38568;DHT22;24338;48.280;10.970;2022-10-16T08:03:45;13.70;99.90
38568;DHT22;24338;48.280;10.970;2022-10-16T08:06:12;13.90;99.90
38568;DHT22;24338;48.280;10.970;2022-10-16T08:08:39;14.00;99.90
38568;DHT22;24338;48.280;10.970;2022-10-16T08:11:06;14.20;99.90
38568;DHT22;24338;48.280;10.970;2022-10-16T08:13:34;14.40;99.90
38568;DHT22;24338;48.280;10.970;2022-10-16T08:16:02;14.50;99.90
38568;DHT22;24338;48.280;10.970;2022-10-16T08:18:36;14.80;99.90
38568;DHT22;24338;48.280;10.970;2022-10-16T08:21:04;15.00;99.90
38568;DHT22;24338;48.280;10.970;2022-10-16T08:23:32;15.20;99.90
38568;DHT22;24338;48.280;10.970;2022-10-16T08:26:04;15.40;99.90
38568;DHT22;24338;48.280;10.970;2022-10-16T08:28:32;15.60;99.90
38568;DHT22;24338;48.280;10.970;2022-10-16T08:31:10;15.90;99.90
38568;DHT22;24338;48.280;10.970;2022-10-16T08:33:38;16.10;99.90
38568;DHT22;24338;48.280;10.970;2022-10-16T08:36:06;16.10;99.90
38568;DHT22;24338;48.280;10.970;2022-10-16T08:38:33;16.20;99.90
38568;DHT22;24338;48.280;10.970;2022-10-16T08:41:17;16.10;99.90
38568;DHT22;24338;48.280;10.970;2022-10-16T08:44:04;16.20;99.90
38568;DHT22;24338;48.280;10.970;2022-10-16T08:49:27;16.40;99.90
38568;DHT22;24338;48.280;10.970;2022-10-16T08:51:55;16.50;99.90
38568;DHT22;24338;48.280;10.970;2022-10-16T08:57:16;16.50;99.90
38568;DHT22;24338;48.280;10.970;2022-10-16T08:59:48;16.50;99.90
38568;DHT22;24338;48.280;10.970;2022-10-16T09:02:35;16.60;99.90
38568;DHT22;24338;48.280;10.970;2022-10-16T09:05:41;16.70;99.90
38568;DHT22;24338;48.280;10.970;2022-10-16T09:11:16;16.90;99.90
38568;DHT22;24338;48.280;10.970;2022-10-16T09:16:38;17.20;99.90
38568;DHT22;24338;48.280;10.970;2022-10-16T09:21:54;17.20;99.90
38568;DHT22;24338;48.280;10.970;2022-10-16T09:24:25;17.30;99.90
38568;DHT22;24338;48.280;10.970;2022-10-16T09:26:54;17.50;99.90
38568;DHT22;24338;48.280;10.970;2022-10-16T09:29:22;17.50;99.90
38568;DHT22;24338;48.280;10.970;2022-10-16T09:31:53;17.70;99.90
38568;DHT22;24338;48.280;10.970;2022-10-16T09:34:27;17.90;99.90
38568;DHT22;24338;48.280;10.970;2022-10-16T09:36:59;18.10;99.90
38568;DHT22;24338;48.280;10.970;2022-10-16T09:39:26;18.30;99.90
38568;DHT22;24338;48.280;10.970;2022-10-16T09:41:53;18.60;99.90
38568;DHT22;24338;48.280;10.970;2022-10-16T09:44:26;18.90;99.90
38568;DHT22;24338;48.280;10.970;2022-10-16T09:50:20;19.20;99.90
38568;DHT22;24338;48.280;10.970;2022-10-16T09:52:47;19.40;99.90
38568;DHT22;24338;48.280;10.970;2022-10-16T09:55:18;19.70;99.90
38568;DHT22;24338;48.280;10.970;2022-10-16T09:57:51;19.80;99.90
38568;DHT22;24338;48.280;10.970;2022-10-16T10:00:19;19.90;99.90
38568;DHT22;24338;48.280;10.970;2022-10-16T10:02:46;20.00;99.90
38568;DHT22;24338;48.280;10.970;2022-10-16T10:05:27;20.00;99.90
38568;DHT22;24338;48.280;10.970;2022-10-16T10:08:00;20.10;99.90
38568;DHT22;24338;48.280;10.970;2022-10-16T10:10:41;20.10;99.90
38568;DHT22;24338;48.280;10.970;2022-10-16T10:13:21;20.20;99.90
38568;DHT22;24338;48.280;10.970;2022-10-16T10:15:48;20.10;99.90
38568;DHT22;24338;48.280;10.970;2022-10-16T10:18:18;20.10;99.90
38568;DHT22;24338;48.280;10.970;2022-10-16T10:20:57;20.00;99.90
38568;DHT22;24338;48.280;10.970;2022-10-16T10:23:26;20.00;99.90
38568;DHT22;24338;48.280;10.970;2022-10-16T10:31:03;20.80;99.90
38568;DHT22;24338;48.280;10.970;2022-10-16T10:36:37;21.30;99.90
38568;DHT22;24338;48.280;10.970;2022-10-16T10:41:59;21.70;99.90
38568;DHT22;24338;48.280;10.970;2022-10-16T10:58:42;21.80;99.90
38568;DHT22;24338;48.280;10.970;2022-10-16T11:01:14;21.80;99.90
38568;DHT22;24338;48.280;10.970;2022-10-16T11:06:57;21.90;99.90
38568;DHT22;24338;48.280;10.970;2022-10-16T11:09:34;21.80;99.90
38568;DHT22;24338;48.280;10.970;2022-10-16T11:12:25;21.80;99.90
38568;DHT22;24338;48.280;10.970;2022-10-16T11:17:32;21.90;99.90
38568;DHT22;24338;48.280;10.970;2022-10-16T11:20:20;21.90;99.90
38568;DHT22;24338;48.280;10.970;2022-10-16T11:22:58;22.20;99.90
38568;DHT22;24338;48.280;10.970;2022-10-16T11:25:31;22.20;99.90
38568;DHT22;24338;48.280;10.970;2022-10-16T11:30:50;22.30;99.90
38568;DHT22;24338;48.280;10.970;2022-10-16T11:36:12;22.50;99.90
38568;DHT22;24338;48.280;10.970;2022-10-16T11:38:45;22.50;99.90
38568;DHT22;24338;48.280;10.970;2022-10-16T11:46:40;22.40;99.90
38568;DHT22;24338;48.280;10.970;2022-10-16T11:49:33;22.30;99.90
38568;DHT22;24338;48.280;10.970;2022-10-16T11:55:16;22.50;99.90
38568;DHT22;24338;48.280;10.970;2022-10-16T11:57:48;22.80;99.90
38568;DHT22;24338;48.280;10.970;2022-10-16T12:00:27;23.10;99.90
38568;DHT22;24338;48.280;10.970;2022-10-16T12:03:00;23.40;99.90
38568;DHT22;24338;48.280;10.970;2022-10-16T12:08:35;23.50;99.90
38568;DHT22;24338;48.280;10.970;2022-10-16T12:11:23;23.40;99.90
38568;DHT22;24338;48.280;10.970;2022-10-16T12:13:50;23.50;99.90
38568;DHT22;24338;48.280;10.970;2022-10-16T12:18:45;23.60;99.90
38568;DHT22;24338;48.280;10.970;2022-10-16T12:21:14;23.60;99.60
38568;DHT22;24338;48.280;10.970;2022-10-16T12:23:56;23.60;99.90
38568;DHT22;24338;48.280;10.970;2022-10-16T12:26:38;23.70;99.90
38568;DHT22;24338;48.280;10.970;2022-10-16T12:31:44;23.60;97.60
38568;DHT22;24338;48.280;10.970;2022-10-16T12:36:54;23.40;98.00
38568;DHT22;24338;48.280;10.970;2022-10-16T12:39:24;23.30;97.50
38568;DHT22;24338;48.280;10.970;2022-10-16T12:42:17;23.30;97.20
38568;DHT22;24338;48.280;10.970;2022-10-16T12:44:45;23.30;97.30
38568;DHT22;24338;48.280;10.970;2022-10-16T12:49:54;23.20;96.40
38568;DHT22;24338;48.280;10.970;2022-10-16T12:52:36;23.20;97.50
38568;DHT22;24338;48.280;10.970;2022-10-16T12:55:05;23.20;95.50
38568;DHT22;24338;48.280;10.970;2022-10-16T12:57:45;23.20;97.50
38568;DHT22;24338;48.280;10.970;2022-10-16T13:14:30;23.40;95.70
38568;DHT22;24338;48.280;10.970;2022-10-16T13:23:17;23.50;94.40
38568;DHT22;24338;48.280;10.970;2022-10-16T13:28:33;23.50;94.40
38568;DHT22;24338;48.280;10.970;2022-10-16T13:31:02;23.40;95.10
38568;DHT22;24338;48.280;10.970;2022-10-16T13:33:42;23.50;95.00
38568;DHT22;24338;48.280;10.970;2022-10-16T13:37:15;23.50;94.60
38568;DHT22;24338;48.280;10.970;2022-10-16T13:39:27;23.50;93.80
38568;DHT22;24338;48.280;10.970;2022-10-16T13:42:12;23.50;92.80
38568;DHT22;24338;48.280;10.970;2022-10-16T13:44:49;23.40;93.90
38568;DHT22;24338;48.280;10.970;2022-10-16T13:47:25;23.30;94.40
38568;DHT22;24338;48.280;10.970;2022-10-16T13:50:15;23.30;93.10
38568;DHT22;24338;48.280;10.970;2022-10-16T13:52:43;23.30;94.10
38568;DHT22;24338;48.280;10.970;2022-10-16T13:55:18;23.20;94.30
38568;DHT22;24338;48.280;10.970;2022-10-16T13:57:51;23.20;91.90
38568;DHT22;24338;48.280;10.970;2022-10-16T14:00:25;23.10;94.40
38568;DHT22;24338;48.280;10.970;2022-10-16T14:03:12;22.90;93.80
38568;DHT22;24338;48.280;10.970;2022-10-16T14:06:04;22.70;94.30
38568;DHT22;24338;48.280;10.970;2022-10-16T14:08:32;22.60;96.20
38568;DHT22;24338;48.280;10.970;2022-10-16T14:11:02;22.60;96.40
38568;DHT22;24338;48.280;10.970;2022-10-16T14:13:39;22.70;95.50
38568;DHT22;24338;48.280;10.970;2022-10-16T14:16:10;22.70;95.10
38568;DHT22;24338;48.280;10.970;2022-10-16T14:18:49;22.70;93.50
38568;DHT22;24338;48.280;10.970;2022-10-16T14:21:19;22.60;95.00
38568;DHT22;24338;48.280;10.970;2022-10-16T14:23:46;22.50;93.30
38568;DHT22;24338;48.280;10.970;2022-10-16T14:26:20;22.40;95.50
38568;DHT22;24338;48.280;10.970;2022-10-16T14:28:49;22.30;96.90
38568;DHT22;24338;48.280;10.970;2022-10-16T14:31:32;22.20;98.40
38568;DHT22;24338;48.280;10.970;2022-10-16T14:34:00;22.10;97.70
38568;DHT22;24338;48.280;10.970;2022-10-16T14:36:28;22.10;97.40
38568;DHT22;24338;48.280;10.970;2022-10-16T14:38:57;22.00;97.60
38568;DHT22;24338;48.280;10.970;2022-10-16T14:41:25;21.90;98.10
38568;DHT22;24338;48.280;10.970;2022-10-16T14:44:00;21.90;99.10
38568;DHT22;24338;48.280;10.970;2022-10-16T14:46:38;21.90;99.90
38568;DHT22;24338;48.280;10.970;2022-10-16T14:49:16;21.90;99.90
38568;DHT22;24338;48.280;10.970;2022-10-16T14:51:44;21.80;99.90
38568;DHT22;24338;48.280;10.970;2022-10-16T14:54:17;21.80;99.90
38568;DHT22;24338;48.280;10.970;2022-10-16T14:56:53;21.80;99.90
38568;DHT22;24338;48.280;10.970;2022-10-16T14:59:35;21.70;99.60
38568;DHT22;24338;48.280;10.970;2022-10-16T15:04:46;21.60;98.70
38568;DHT22;24338;48.280;10.970;2022-10-16T15:07:13;21.60;99.80
38568;DHT22;24338;48.280;10.970;2022-10-16T15:09:40;21.60;99.90
38568;DHT22;24338;48.280;10.970;2022-10-16T15:12:14;21.60;99.90
38568;DHT22;24338;48.280;10.970;2022-10-16T15:14:41;21.60;99.90
38568;DHT22;24338;48.280;10.970;2022-10-16T15:17:10;21.50;99.90
38568;DHT22;24338;48.280;10.970;2022-10-16T15:19:37;21.40;99.90
38568;DHT22;24338;48.280;10.970;2022-10-16T15:22:04;21.30;99.90
38568;DHT22;24338;48.280;10.970;2022-10-16T15:24:31;21.20;99.90
38568;DHT22;24338;48.280;10.970;2022-10-16T15:26:58;21.20;99.90
38568;DHT22;24338;48.280;10.970;2022-10-16T15:29:24;21.00;99.90
38568;DHT22;24338;48.280;10.970;2022-10-16T15:31:51;20.90;99.90
38568;DHT22;24338;48.280;10.970;2022-10-16T15:34:18;20.80;99.90
38568;DHT22;24338;48.280;10.970;2022-10-16T15:36:46;20.70;99.90
38568;DHT22;24338;48.280;10.970;2022-10-16T15:39:15;20.60;99.90
38568;DHT22;24338;48.280;10.970;2022-10-16T15:41:44;20.50;99.90
38568;DHT22;24338;48.280;10.970;2022-10-16T15:44:11;20.50;99.90
38568;DHT22;24338;48.280;10.970;2022-10-16T15:46:40;20.40;99.90
38568;DHT22;24338;48.280;10.970;2022-10-16T15:49:08;20.30;99.90
38568;DHT22;24338;48.280;10.970;2022-10-16T15:51:39;20.10;99.90
38568;DHT22;24338;48.280;10.970;2022-10-16T15:54:06;20.00;99.90
38568;DHT22;24338;48.280;10.970;2022-10-16T15:56:33;20.00;99.90
38568;DHT22;24338;48.280;10.970;2022-10-16T15:59:04;19.90;99.90
38568;DHT22;24338;48.280;10.970;2022-10-16T16:01:33;19.70;99.90
38568;DHT22;24338;48.280;10.970;2022-10-16T16:04:01;19.60;99.90
38568;DHT22;24338;48.280;10.970;2022-10-16T16:06:45;19.60;99.90
38568;DHT22;24338;48.280;10.970;2022-10-16T16:09:13;19.40;99.90
38568;DHT22;24338;48.280;10.970;2022-10-16T16:11:41;19.30;99.90
38568;DHT22;24338;48.280;10.970;2022-10-16T16:14:13;19.20;99.90
38568;DHT22;24338;48.280;10.970;2022-10-16T16:16:39;19.10;99.90
38568;DHT22;24338;48.280;10.970;2022-10-16T16:19:07;19.00;99.90
38568;DHT22;24338;48.280;10.970;2022-10-16T16:21:38;18.90;99.90
38568;DHT22;24338;48.280;10.970;2022-10-16T16:24:05;18.70;99.90
38568;DHT22;24338;48.280;10.970;2022-10-16T16:26:36;18.60;99.90
38568;DHT22;24338;48.280;10.970;2022-10-16T16:29:06;18.50;99.90
38568;DHT22;24338;48.280;10.970;2022-10-16T16:31:33;18.40;99.90
38568;DHT22;24338;48.280;10.970;2022-10-16T16:34:01;18.30;99.90
38568;DHT22;24338;48.280;10.970;2022-10-16T16:36:28;18.10;99.90
38568;DHT22;24338;48.280;10.970;2022-10-16T16:38:56;18.00;99.90
38568;DHT22;24338;48.280;10.970;2022-10-16T16:41:26;17.90;99.90
38568;DHT22;24338;48.280;10.970;2022-10-16T16:43:54;17.90;99.90
38568;DHT22;24338;48.280;10.970;2022-10-16T16:46:22;17.80;99.90
38568;DHT22;24338;48.280;10.970;2022-10-16T16:51:23;17.60;99.90
38568;DHT22;24338;48.280;10.970;2022-10-16T16:53:51;17.50;99.90
38568;DHT22;24338;48.280;10.970;2022-10-16T16:56:19;17.50;99.90
38568;DHT22;24338;48.280;10.970;2022-10-16T16:58:47;17.40;99.90
38568;DHT22;24338;48.280;10.970;2022-10-16T17:01:14;17.30;99.90
38568;DHT22;24338;48.280;10.970;2022-10-16T17:03:46;17.20;99.90
38568;DHT22;24338;48.280;10.970;2022-10-16T17:06:16;17.10;99.90
38568;DHT22;24338;48.280;10.970;2022-10-16T17:08:47;17.00;99.90
38568;DHT22;24338;48.280;10.970;2022-10-16T17:11:16;16.90;99.90
38568;DHT22;24338;48.280;10.970;2022-10-16T17:13:44;16.80;99.90
38568;DHT22;24338;48.280;10.970;2022-10-16T17:16:11;16.70;99.90
38568;DHT22;24338;48.280;10.970;2022-10-16T17:18:38;16.70;99.90
38568;DHT22;24338;48.280;10.970;2022-10-16T17:21:07;16.60;99.90
38568;DHT22;24338;48.280;10.970;2022-10-16T17:23:35;16.50;99.90
38568;DHT22;24338;48.280;10.970;2022-10-16T17:26:07;16.50;99.90
38568;DHT22;24338;48.280;10.970;2022-10-16T17:28:34;16.40;99.90
38568;DHT22;24338;48.280;10.970;2022-10-16T17:31:15;16.30;99.90
38568;DHT22;24338;48.280;10.970;2022-10-16T17:33:43;16.30;99.90
38568;DHT22;24338;48.280;10.970;2022-10-16T17:36:11;16.20;99.90
38568;DHT22;24338;48.280;10.970;2022-10-16T17:38:40;16.20;99.90
38568;DHT22;24338;48.280;10.970;2022-10-16T17:41:23;16.10;99.90
38568;DHT22;24338;48.280;10.970;2022-10-16T17:43:50;16.10;99.90
38568;DHT22;24338;48.280;10.970;2022-10-16T17:46:20;16.10;99.90
38568;DHT22;24338;48.280;10.970;2022-10-16T17:48:49;16.00;99.90